sensor_id;sensor_type;location;lat;lon;timestamp;temperature;humidity
41944;DHT22;27636;52.610;13.244;2023-02-11T00:00:06;2.90;99.90
41944;DHT22;27636;52.610;13.244;2023-02-11T00:05:10;3.10;99.90
41944;DHT22;27636;52.610;13.244;2023-02-11T00:10:13;3.10;99.90
41944;DHT22;27636;52.610;13.244;2023-02-11T00:15:18;3.10;99.90
41944;DHT22;27636;52.610;13.244;2023-02-11T00:20:23;3.20;99.90
41944;DHT22;27636;52.610;13.244;2023-02-11T00:25:26;3.40;99.90
41944;DHT22;27636;52.610;13.244;2023-02-11T00:30:31;3.50;99.90
41944;DHT22;27636;52.610;13.244;2023-02-11T00:35:36;3.50;99.90
41944;DHT22;27636;52.610;13.244;2023-02-11T00:40:40;3.50;99.90
41944;DHT22;27636;52.610;13.244;2023-02-11T00:45:44;3.60;99.90
41944;DHT22;27636;52.610;13.244;2023-02-11T00:50:48;3.80;99.90
41944;DHT22;27636;52.610;13.244;2023-02-11T00:55:51;3.80;99.90
41944;DHT22;27636;52.610;13.244;2023-02-11T01:00:56;3.90;99.90
41944;DHT22;27636;52.610;13.244;2023-02-11T01:06:00;4.00;99.90
41944;DHT22;27636;52.610;13.244;2023-02-11T01:11:06;4.00;99.90
41944;DHT22;27636;52.610;13.244;2023-02-11T01:16:11;4.00;99.90
41944;DHT22;27636;52.610;13.244;2023-02-11T01:21:15;4.00;99.90
41944;DHT22;27636;52.610;13.244;2023-02-11T01:26:18;4.10;99.90
41944;DHT22;27636;52.610;13.244;2023-02-11T01:31:23;4.10;99.90
41944;DHT22;27636;52.610;13.244;2023-02-11T01:36:27;4.10;99.90
41944;DHT22;27636;52.610;13.244;2023-02-11T01:41:30;4.10;99.90
41944;DHT22;27636;52.610;13.244;2023-02-11T01:46:36;4.20;99.90
41944;DHT22;27636;52.610;13.244;2023-02-11T01:51:43;4.10;99.90
41944;DHT22;27636;52.610;13.244;2023-02-11T01:56:51;4.10;99.90
41944;DHT22;27636;52.610;13.244;2023-02-11T02:02:38;4.20;99.90
41944;DHT22;27636;52.610;13.244;2023-02-11T02:07:47;4.20;99.90
41944;DHT22;27636;52.610;13.244;2023-02-11T02:12:52;4.20;99.90
41944;DHT22;27636;52.610;13.244;2023-02-11T02:18:01;4.20;99.90
41944;DHT22;27636;52.610;13.244;2023-02-11T02:34:06;4.10;99.90
41944;DHT22;27636;52.610;13.244;2023-02-11T02:39:14;4.10;99.90
41944;DHT22;27636;52.610;13.244;2023-02-11T02:44:20;4.10;99.90
41944;DHT22;27636;52.610;13.244;2023-02-11T02:49:25;4.20;99.90
41944;DHT22;27636;52.610;13.244;2023-02-11T02:54:35;4.20;99.90
41944;DHT22;27636;52.610;13.244;2023-02-11T02:59:50;4.20;99.90
41944;DHT22;27636;52.610;13.244;2023-02-11T03:05:03;4.20;99.90
41944;DHT22;27636;52.610;13.244;2023-02-11T03:10:12;4.20;99.90
41944;DHT22;27636;52.610;13.244;2023-02-11T03:15:18;4.10;99.90
41944;DHT22;27636;52.610;13.244;2023-02-11T03:20:24;4.20;99.90
41944;DHT22;27636;52.610;13.244;2023-02-11T03:25:35;4.10;99.90
41944;DHT22;27636;52.610;13.244;2023-02-11T03:30:42;4.10;99.90
41944;DHT22;27636;52.610;13.244;2023-02-11T03:35:52;4.30;99.90
41944;DHT22;27636;52.610;13.244;2023-02-11T03:40:57;4.20;99.90
41944;DHT22;27636;52.610;13.244;2023-02-11T03:46:01;4.00;99.90
41944;DHT22;27636;52.610;13.244;2023-02-11T03:51:08;4.20;99.90
41944;DHT22;27636;52.610;13.244;2023-02-11T03:56:17;4.20;99.90
41944;DHT22;27636;52.610;13.244;2023-02-11T04:01:21;4.20;99.90
41944;DHT22;27636;52.610;13.244;2023-02-11T04:06:26;4.10;99.90
41944;DHT22;27636;52.610;13.244;2023-02-11T04:11:29;4.20;99.90
41944;DHT22;27636;52.610;13.244;2023-02-11T04:16:32;4.10;99.90
41944;DHT22;27636;52.610;13.244;2023-02-11T04:21:37;4.30;99.90
41944;DHT22;27636;52.610;13.244;2023-02-11T04:26:40;4.30;99.90
41944;DHT22;27636;52.610;13.244;2023-02-11T04:31:44;4.30;99.90
41944;DHT22;27636;52.610;13.244;2023-02-11T04:36:49;4.30;99.90
41944;DHT22;27636;52.610;13.244;2023-02-11T04:41:53;4.40;99.90
41944;DHT22;27636;52.610;13.244;2023-02-11T04:46:56;4.30;99.90
41944;DHT22;27636;52.610;13.244;2023-02-11T04:52:01;4.30;99.90
41944;DHT22;27636;52.610;13.244;2023-02-11T04:57:04;4.40;99.90
41944;DHT22;27636;52.610;13.244;2023-02-11T05:02:08;4.40;99.90
41944;DHT22;27636;52.610;13.244;2023-02-11T05:07:12;4.30;99.90
41944;DHT22;27636;52.610;13.244;2023-02-11T05:12:16;4.30;99.90
41944;DHT22;27636;52.610;13.244;2023-02-11T05:17:19;4.20;99.90
41944;DHT22;27636;52.610;13.244;2023-02-11T05:22:24;4.30;99.90
41944;DHT22;27636;52.610;13.244;2023-02-11T05:27:27;4.40;99.90
41944;DHT22;27636;52.610;13.244;2023-02-11T05:32:31;4.40;99.90
41944;DHT22;27636;52.610;13.244;2023-02-11T05:37:36;4.40;99.90
41944;DHT22;27636;52.610;13.244;2023-02-11T05:42:39;4.50;99.90
41944;DHT22;27636;52.610;13.244;2023-02-11T05:47:42;4.60;99.90
41944;DHT22;27636;52.610;13.244;2023-02-11T05:52:48;4.40;99.90
41944;DHT22;27636;52.610;13.244;2023-02-11T05:57:53;4.50;99.90
41944;DHT22;27636;52.610;13.244;2023-02-11T06:02:57;4.50;99.90
41944;DHT22;27636;52.610;13.244;2023-02-11T06:08:01;4.60;99.90
41944;DHT22;27636;52.610;13.244;2023-02-11T06:13:04;4.50;99.90
41944;DHT22;27636;52.610;13.244;2023-02-11T06:18:08;4.60;99.90
41944;DHT22;27636;52.610;13.244;2023-02-11T06:23:13;4.60;99.90
41944;DHT22;27636;52.610;13.244;2023-02-11T06:28:16;4.60;99.90
41944;DHT22;27636;52.610;13.244;2023-02-11T06:33:19;4.70;99.90
41944;DHT22;27636;52.610;13.244;2023-02-11T06:38:24;4.70;99.90
41944;DHT22;27636;52.610;13.244;2023-02-11T06:43:28;4.60;99.90
41944;DHT22;27636;52.610;13.244;2023-02-11T06:48:31;4.80;99.90
41944;DHT22;27636;52.610;13.244;2023-02-11T06:53:37;4.80;99.90
41944;DHT22;27636;52.610;13.244;2023-02-11T06:58:41;5.00;99.90
41944;DHT22;27636;52.610;13.244;2023-02-11T07:03:45;5.00;99.90
41944;DHT22;27636;52.610;13.244;2023-02-11T07:08:50;5.20;99.90
41944;DHT22;27636;52.610;13.244;2023-02-11T07:13:55;5.30;99.90
41944;DHT22;27636;52.610;13.244;2023-02-11T07:18:59;5.40;99.90
41944;DHT22;27636;52.610;13.244;2023-02-11T07:24:06;5.60;99.90
41944;DHT22;27636;52.610;13.244;2023-02-11T07:29:13;5.60;99.90
41944;DHT22;27636;52.610;13.244;2023-02-11T07:34:17;5.70;99.90
41944;DHT22;27636;52.610;13.244;2023-02-11T07:39:21;5.80;99.90
41944;DHT22;27636;52.610;13.244;2023-02-11T07:44:29;6.00;99.90
41944;DHT22;27636;52.610;13.244;2023-02-11T07:49:35;6.00;99.90
41944;DHT22;27636;52.610;13.244;2023-02-11T07:54:40;6.10;99.90
41944;DHT22;27636;52.610;13.244;2023-02-11T07:59:43;6.20;99.90
41944;DHT22;27636;52.610;13.244;2023-02-11T08:04:46;6.10;99.90
41944;DHT22;27636;52.610;13.244;2023-02-11T08:09:51;6.30;99.90
41944;DHT22;27636;52.610;13.244;2023-02-11T08:14:54;6.20;99.90
41944;DHT22;27636;52.610;13.244;2023-02-11T08:19:58;6.20;99.90
41944;DHT22;27636;52.610;13.244;2023-02-11T08:25:03;6.20;99.90
41944;DHT22;27636;52.610;13.244;2023-02-11T08:30:08;6.20;99.90
41944;DHT22;27636;52.610;13.244;2023-02-11T08:35:11;6.20;99.90
41944;DHT22;27636;52.610;13.244;2023-02-11T08:40:16;6.30;99.90
41944;DHT22;27636;52.610;13.244;2023-02-11T08:45:20;6.30;99.90
41944;DHT22;27636;52.610;13.244;2023-02-11T08:50:23;6.30;99.90
41944;DHT22;27636;52.610;13.244;2023-02-11T08:55:29;6.30;99.90
41944;DHT22;27636;52.610;13.244;2023-02-11T09:00:32;6.20;99.90
41944;DHT22;27636;52.610;13.244;2023-02-11T09:05:41;6.30;99.90
41944;DHT22;27636;52.610;13.244;2023-02-11T09:10:47;6.30;99.90
41944;DHT22;27636;52.610;13.244;2023-02-11T09:15:51;6.20;99.90
41944;DHT22;27636;52.610;13.244;2023-02-11T09:21:01;6.30;99.90
41944;DHT22;27636;52.610;13.244;2023-02-11T09:26:08;6.30;99.90
41944;DHT22;27636;52.610;13.244;2023-02-11T09:31:14;6.30;99.90
41944;DHT22;27636;52.610;13.244;2023-02-11T09:36:20;6.30;99.90
41944;DHT22;27636;52.610;13.244;2023-02-11T09:41:57;6.40;99.90
41944;DHT22;27636;52.610;13.244;2023-02-11T09:47:05;6.50;99.90
41944;DHT22;27636;52.610;13.244;2023-02-11T09:52:34;6.60;99.90
41944;DHT22;27636;52.610;13.244;2023-02-11T09:57:41;6.70;99.90
41944;DHT22;27636;52.610;13.244;2023-02-11T10:03:00;6.70;99.90
41944;DHT22;27636;52.610;13.244;2023-02-11T10:08:10;6.60;99.90
41944;DHT22;27636;52.610;13.244;2023-02-11T10:13:34;6.60;99.90
41944;DHT22;27636;52.610;13.244;2023-02-11T10:18:54;6.70;99.90
41944;DHT22;27636;52.610;13.244;2023-02-11T10:24:05;6.70;99.90
41944;DHT22;27636;52.610;13.244;2023-02-11T10:29:25;6.80;99.90
41944;DHT22;27636;52.610;13.244;2023-02-11T10:34:38;6.90;99.90
41944;DHT22;27636;52.610;13.244;2023-02-11T10:39:44;7.00;99.90
41944;DHT22;27636;52.610;13.244;2023-02-11T10:44:56;6.80;99.90
41944;DHT22;27636;52.610;13.244;2023-02-11T10:50:00;6.80;99.90
41944;DHT22;27636;52.610;13.244;2023-02-11T10:55:15;6.80;99.90
41944;DHT22;27636;52.610;13.244;2023-02-11T11:00:29;6.80;99.90
41944;DHT22;27636;52.610;13.244;2023-02-11T11:05:45;6.80;99.90
41944;DHT22;27636;52.610;13.244;2023-02-11T11:11:01;6.90;99.90
41944;DHT22;27636;52.610;13.244;2023-02-11T11:16:18;6.90;99.90
41944;DHT22;27636;52.610;13.244;2023-02-11T11:21:24;6.80;99.90
41944;DHT22;27636;52.610;13.244;2023-02-11T11:26:39;7.00;99.90
41944;DHT22;27636;52.610;13.244;2023-02-11T11:31:50;6.90;99.90
41944;DHT22;27636;52.610;13.244;2023-02-11T11:36:56;6.90;99.90
41944;DHT22;27636;52.610;13.244;2023-02-11T11:42:01;6.90;99.90
41944;DHT22;27636;52.610;13.244;2023-02-11T11:47:21;6.90;99.90
41944;DHT22;27636;52.610;13.244;2023-02-11T11:52:37;7.00;99.90
41944;DHT22;27636;52.610;13.244;2023-02-11T11:57:42;7.10;99.90
41944;DHT22;27636;52.610;13.244;2023-02-11T12:03:04;7.30;99.90
41944;DHT22;27636;52.610;13.244;2023-02-11T12:08:18;7.40;99.90
41944;DHT22;27636;52.610;13.244;2023-02-11T12:13:33;7.40;99.90
41944;DHT22;27636;52.610;13.244;2023-02-11T12:19:03;7.50;99.90
41944;DHT22;27636;52.610;13.244;2023-02-11T12:24:28;7.40;99.90
41944;DHT22;27636;52.610;13.244;2023-02-11T12:29:36;7.50;99.90
41944;DHT22;27636;52.610;13.244;2023-02-11T12:40:30;7.50;99.90
41944;DHT22;27636;52.610;13.244;2023-02-11T12:45:43;7.60;99.90
41944;DHT22;27636;52.610;13.244;2023-02-11T12:50:55;7.60;99.90
41944;DHT22;27636;52.610;13.244;2023-02-11T12:56:05;7.50;99.90
41944;DHT22;27636;52.610;13.244;2023-02-11T13:01:17;7.70;99.90
41944;DHT22;27636;52.610;13.244;2023-02-11T13:06:27;7.70;99.90
41944;DHT22;27636;52.610;13.244;2023-02-11T13:11:36;7.90;99.90
41944;DHT22;27636;52.610;13.244;2023-02-11T13:16:42;7.80;99.90
41944;DHT22;27636;52.610;13.244;2023-02-11T13:22:08;7.80;99.90
41944;DHT22;27636;52.610;13.244;2023-02-11T13:27:29;7.70;99.90
41944;DHT22;27636;52.610;13.244;2023-02-11T13:33:02;7.80;99.90
41944;DHT22;27636;52.610;13.244;2023-02-11T13:38:18;7.80;99.90
41944;DHT22;27636;52.610;13.244;2023-02-11T13:43:25;7.70;99.90
41944;DHT22;27636;52.610;13.244;2023-02-11T13:48:33;7.70;99.90
41944;DHT22;27636;52.610;13.244;2023-02-11T13:53:48;7.60;99.90
41944;DHT22;27636;52.610;13.244;2023-02-11T13:58:52;7.60;99.90
41944;DHT22;27636;52.610;13.244;2023-02-11T14:04:19;7.70;99.90
41944;DHT22;27636;52.610;13.244;2023-02-11T14:09:42;7.60;99.90
41944;DHT22;27636;52.610;13.244;2023-02-11T14:15:18;7.60;99.90
41944;DHT22;27636;52.610;13.244;2023-02-11T14:20:41;7.50;99.90
41944;DHT22;27636;52.610;13.244;2023-02-11T14:25:58;7.60;99.90
41944;DHT22;27636;52.610;13.244;2023-02-11T14:31:06;7.60;99.90
41944;DHT22;27636;52.610;13.244;2023-02-11T14:36:23;7.50;99.90
41944;DHT22;27636;52.610;13.244;2023-02-11T14:41:34;7.50;99.90
41944;DHT22;27636;52.610;13.244;2023-02-11T14:46:37;7.50;99.90
41944;DHT22;27636;52.610;13.244;2023-02-11T14:51:46;7.50;99.90
41944;DHT22;27636;52.610;13.244;2023-02-11T14:57:11;7.50;99.90
41944;DHT22;27636;52.610;13.244;2023-02-11T15:02:21;7.40;99.90
41944;DHT22;27636;52.610;13.244;2023-02-11T15:07:25;7.40;99.90
41944;DHT22;27636;52.610;13.244;2023-02-11T15:12:29;7.40;99.90
41944;DHT22;27636;52.610;13.244;2023-02-11T15:17:32;7.40;99.90
41944;DHT22;27636;52.610;13.244;2023-02-11T15:22:36;7.40;99.90
41944;DHT22;27636;52.610;13.244;2023-02-11T15:27:44;7.30;99.90
41944;DHT22;27636;52.610;13.244;2023-02-11T15:32:48;7.40;99.90
41944;DHT22;27636;52.610;13.244;2023-02-11T15:37:53;7.40;99.90
41944;DHT22;27636;52.610;13.244;2023-02-11T15:42:59;7.40;99.90
41944;DHT22;27636;52.610;13.244;2023-02-11T15:48:08;7.40;99.90
41944;DHT22;27636;52.610;13.244;2023-02-11T15:53:24;7.40;99.90
41944;DHT22;27636;52.610;13.244;2023-02-11T15:58:36;7.40;99.90
41944;DHT22;27636;52.610;13.244;2023-02-11T16:03:40;7.30;99.90
41944;DHT22;27636;52.610;13.244;2023-02-11T16:08:56;7.40;99.90
41944;DHT22;27636;52.610;13.244;2023-02-11T16:14:01;7.40;99.90
41944;DHT22;27636;52.610;13.244;2023-02-11T16:19:23;7.40;99.90
41944;DHT22;27636;52.610;13.244;2023-02-11T16:24:30;7.40;99.90
41944;DHT22;27636;52.610;13.244;2023-02-11T16:29:36;7.40;99.90
41944;DHT22;27636;52.610;13.244;2023-02-11T16:34:40;7.40;99.90
41944;DHT22;27636;52.610;13.244;2023-02-11T16:39:43;7.40;99.90
41944;DHT22;27636;52.610;13.244;2023-02-11T16:44:48;7.30;99.90
41944;DHT22;27636;52.610;13.244;2023-02-11T16:49:51;7.40;99.90
41944;DHT22;27636;52.610;13.244;2023-02-11T16:54:55;7.40;99.90
41944;DHT22;27636;52.610;13.244;2023-02-11T17:00:00;7.50;99.90
41944;DHT22;27636;52.610;13.244;2023-02-11T17:05:05;7.40;99.90
41944;DHT22;27636;52.610;13.244;2023-02-11T17:10:12;7.40;99.90
41944;DHT22;27636;52.610;13.244;2023-02-11T17:15:18;7.30;99.90
41944;DHT22;27636;52.610;13.244;2023-02-11T17:20:21;7.40;99.90
41944;DHT22;27636;52.610;13.244;2023-02-11T17:25:25;7.40;99.90
41944;DHT22;27636;52.610;13.244;2023-02-11T17:30:29;7.30;99.90
41944;DHT22;27636;52.610;13.244;2023-02-11T17:35:33;7.40;99.90
41944;DHT22;27636;52.610;13.244;2023-02-11T17:40:37;7.40;99.90
41944;DHT22;27636;52.610;13.244;2023-02-11T17:45:41;7.40;99.90
41944;DHT22;27636;52.610;13.244;2023-02-11T17:50:45;7.40;99.90
41944;DHT22;27636;52.610;13.244;2023-02-11T17:55:48;7.30;99.90
41944;DHT22;27636;52.610;13.244;2023-02-11T18:00:56;7.40;99.90
41944;DHT22;27636;52.610;13.244;2023-02-11T18:06:00;7.40;99.90
41944;DHT22;27636;52.610;13.244;2023-02-11T18:11:09;7.30;99.90
41944;DHT22;27636;52.610;13.244;2023-02-11T18:16:14;7.50;99.90
41944;DHT22;27636;52.610;13.244;2023-02-11T18:21:21;7.30;99.90
41944;DHT22;27636;52.610;13.244;2023-02-11T18:26:24;7.40;99.90
41944;DHT22;27636;52.610;13.244;2023-02-11T18:31:32;7.40;99.90
41944;DHT22;27636;52.610;13.244;2023-02-11T18:36:37;7.40;99.90
41944;DHT22;27636;52.610;13.244;2023-02-11T18:41:41;7.30;99.90
41944;DHT22;27636;52.610;13.244;2023-02-11T18:46:46;7.30;99.90
41944;DHT22;27636;52.610;13.244;2023-02-11T18:51:50;7.30;99.90
41944;DHT22;27636;52.610;13.244;2023-02-11T18:56:56;7.30;99.90
41944;DHT22;27636;52.610;13.244;2023-02-11T19:02:00;7.30;99.90
41944;DHT22;27636;52.610;13.244;2023-02-11T19:07:04;7.20;99.90
41944;DHT22;27636;52.610;13.244;2023-02-11T19:12:08;7.20;99.90
41944;DHT22;27636;52.610;13.244;2023-02-11T19:17:12;7.30;99.90
41944;DHT22;27636;52.610;13.244;2023-02-11T19:22:16;7.30;99.90
41944;DHT22;27636;52.610;13.244;2023-02-11T19:27:21;7.30;99.90
41944;DHT22;27636;52.610;13.244;2023-02-11T19:32:25;7.20;99.90
41944;DHT22;27636;52.610;13.244;2023-02-11T19:37:29;7.30;99.90
41944;DHT22;27636;52.610;13.244;2023-02-11T19:42:32;7.30;99.90
41944;DHT22;27636;52.610;13.244;2023-02-11T19:47:37;7.10;99.90
41944;DHT22;27636;52.610;13.244;2023-02-11T19:52:40;7.00;99.90
41944;DHT22;27636;52.610;13.244;2023-02-11T19:57:44;6.90;99.90
41944;DHT22;27636;52.610;13.244;2023-02-11T20:02:48;6.90;99.90
41944;DHT22;27636;52.610;13.244;2023-02-11T20:07:52;7.10;99.90
41944;DHT22;27636;52.610;13.244;2023-02-11T20:12:56;7.00;99.90
41944;DHT22;27636;52.610;13.244;2023-02-11T20:18:01;7.00;99.90
41944;DHT22;27636;52.610;13.244;2023-02-11T20:23:04;7.00;99.90
41944;DHT22;27636;52.610;13.244;2023-02-11T20:28:08;6.90;99.90
41944;DHT22;27636;52.610;13.244;2023-02-11T20:33:13;6.80;99.90
41944;DHT22;27636;52.610;13.244;2023-02-11T20:38:16;6.90;99.90
41944;DHT22;27636;52.610;13.244;2023-02-11T20:43:20;6.90;99.90
41944;DHT22;27636;52.610;13.244;2023-02-11T20:48:25;6.90;99.90
41944;DHT22;27636;52.610;13.244;2023-02-11T20:53:28;6.80;99.90
41944;DHT22;27636;52.610;13.244;2023-02-11T20:58:32;6.80;99.90
41944;DHT22;27636;52.610;13.244;2023-02-11T21:03:37;6.70;99.90
41944;DHT22;27636;52.610;13.244;2023-02-11T21:08:41;6.70;99.90
41944;DHT22;27636;52.610;13.244;2023-02-11T21:13:49;6.60;99.90
41944;DHT22;27636;52.610;13.244;2023-02-11T21:18:54;6.60;99.90
41944;DHT22;27636;52.610;13.244;2023-02-11T21:23:58;6.60;99.90
41944;DHT22;27636;52.610;13.244;2023-02-11T21:29:01;6.60;99.90
41944;DHT22;27636;52.610;13.244;2023-02-11T21:34:06;6.50;99.90
41944;DHT22;27636;52.610;13.244;2023-02-11T21:39:10;6.70;99.90
41944;DHT22;27636;52.610;13.244;2023-02-11T21:44:15;6.70;99.90
41944;DHT22;27636;52.610;13.244;2023-02-11T21:49:20;6.70;99.90
41944;DHT22;27636;52.610;13.244;2023-02-11T21:54:23;6.60;99.90
41944;DHT22;27636;52.610;13.244;2023-02-11T21:59:31;6.70;99.90
41944;DHT22;27636;52.610;13.244;2023-02-11T22:04:35;6.50;99.90
41944;DHT22;27636;52.610;13.244;2023-02-11T22:09:39;6.60;99.90
41944;DHT22;27636;52.610;13.244;2023-02-11T22:14:43;6.60;99.90
41944;DHT22;27636;52.610;13.244;2023-02-11T22:19:47;6.50;99.90
41944;DHT22;27636;52.610;13.244;2023-02-11T22:24:50;6.40;99.90
41944;DHT22;27636;52.610;13.244;2023-02-11T22:29:54;6.50;99.90
41944;DHT22;27636;52.610;13.244;2023-02-11T22:34:59;6.30;99.90
41944;DHT22;27636;52.610;13.244;2023-02-11T22:40:02;6.40;99.90
41944;DHT22;27636;52.610;13.244;2023-02-11T22:45:07;6.40;99.90
41944;DHT22;27636;52.610;13.244;2023-02-11T22:50:11;6.40;99.90
41944;DHT22;27636;52.610;13.244;2023-02-11T22:55:15;6.30;99.90
41944;DHT22;27636;52.610;13.244;2023-02-11T23:00:19;6.20;99.90
41944;DHT22;27636;52.610;13.244;2023-02-11T23:05:25;6.20;99.90
41944;DHT22;27636;52.610;13.244;2023-02-11T23:10:28;6.20;99.90
41944;DHT22;27636;52.610;13.244;2023-02-11T23:15:31;6.10;99.90
41944;DHT22;27636;52.610;13.244;2023-02-11T23:20:39;6.10;99.90
41944;DHT22;27636;52.610;13.244;2023-02-11T23:25:42;6.10;99.90
41944;DHT22;27636;52.610;13.244;2023-02-11T23:30:46;6.00;99.90
41944;DHT22;27636;52.610;13.244;2023-02-11T23:35:51;6.10;99.90
41944;DHT22;27636;52.610;13.244;2023-02-11T23:40:55;6.00;99.90
41944;DHT22;27636;52.610;13.244;2023-02-11T23:45:58;6.00;99.90
41944;DHT22;27636;52.610;13.244;2023-02-11T23:51:03;5.90;99.90
41944;DHT22;27636;52.610;13.244;2023-02-11T23:56:08;6.00;99.90
